Time;durP1;ratioP1;P1;durP2;ratioP2;P2;SDS_P1;SDS_P2;PMS_P1;PMS_P2;Temp;Humidity;BMP_temperature;BMP_pressure;BME280_temperature;BME280_humidity;BME280_pressure;Samples;Min_cycle;Max_cycle;Signal;HPM_P1;HPM_P2
2021/07/06 00:02:45;;;;;;;11.35;5.07;;;;;;;;;;8320369;28;20418;-70
2021/07/06 00:07:19;;;;;;;7.68;5.30;;;;;;;;;;8327168;28;20470;-70
2021/07/06 00:11:25;;;;;;;6.25;4.32;;;;;;;;;;8325863;28;20474;-70
2021/07/06 00:15:31;;;;;;;7.25;4.20;;;;;;;;;;8326729;28;20344;-69
2021/07/06 00:19:38;;;;;;;9.25;4.85;;;;;;;;;;8324423;28;20044;-70
2021/07/06 00:23:43;;;;;;;11.35;5.05;;;;;;;;;;8325845;28;20069;-70
2021/07/06 00:27:49;;;;;;;6.35;3.95;;;;;;;;;;8324973;28;20489;-70
2021/07/06 00:31:54;;;;;;;11.20;5.15;;;;;;;;;;8326614;28;20036;-70
2021/07/06 00:36:01;;;;;;;7.07;4.90;;;;;;;;;;8326737;28;20366;-71
2021/07/06 00:40:08;;;;;;;7.38;4.75;;;;;;;;;;8325812;28;20374;-70
2021/07/06 00:44:19;;;;;;;7.53;4.90;;;;;;;;;;8327013;28;20078;-70
2021/07/06 00:48:26;;;;;;;10.48;5.97;;;;;;;;;;8323635;28;20360;-70
2021/07/06 00:52:32;;;;;;;8.48;5.00;;;;;;;;;;8324729;28;20512;-71
2021/07/06 00:56:38;;;;;;;13.00;5.03;;;;;;;;;;8326738;28;20352;-70
2021/07/06 01:00:44;;;;;;;7.85;5.25;;;;;;;;;;8323397;28;20475;-70
2021/07/06 01:04:49;;;;;;;8.35;4.70;;;;;;;;;;8325012;28;20052;-70
2021/07/06 01:08:55;;;;;;;7.13;4.97;;;;;;;;;;8325045;28;20358;-70
2021/07/06 01:13:01;;;;;;;14.40;5.30;;;;;;;;;;8324733;28;20378;-70
2021/07/06 01:17:08;;;;;;;13.05;6.45;;;;;;;;;;8323296;28;20062;-71
2021/07/06 01:21:13;;;;;;;10.77;5.27;;;;;;;;;;8323904;28;20359;-70
2021/07/06 01:25:19;;;;;;;9.18;5.50;;;;;;;;;;8306977;28;20486;-70
2021/07/06 01:29:24;;;;;;;9.18;5.60;;;;;;;;;;8322483;28;20466;-70
2021/07/06 01:33:32;;;;;;;11.32;5.95;;;;;;;;;;8322294;28;20413;-71
2021/07/06 01:37:57;;;;;;;15.90;5.55;;;;;;;;;;8323005;28;20067;-70
2021/07/06 01:42:02;;;;;;;9.07;5.00;;;;;;;;;;8322583;28;20481;-71
2021/07/06 01:46:07;;;;;;;9.57;5.78;;;;;;;;;;8322145;28;20040;-70
2021/07/06 01:50:16;;;;;;;9.60;5.93;;;;;;;;;;8320710;28;20346;-70
2021/07/06 01:54:21;;;;;;;9.13;5.40;;;;;;;;;;8307167;28;20044;-71
2021/07/06 01:58:27;;;;;;;12.15;5.97;;;;;;;;;;8324720;28;20340;-71
2021/07/06 02:02:32;;;;;;;9.45;5.10;;;;;;;;;;8323955;28;20580;-70
2021/07/06 02:06:38;;;;;;;13.43;6.00;;;;;;;;;;8322249;28;20490;-71
2021/07/06 02:10:46;;;;;;;10.00;5.93;;;;;;;;;;8323506;28;20382;-70
2021/07/06 02:14:51;;;;;;;9.02;5.28;;;;;;;;;;8323957;28;20439;-70
2021/07/06 02:18:56;;;;;;;9.55;5.50;;;;;;;;;;8324384;28;20040;-70
2021/07/06 02:23:06;;;;;;;11.00;5.90;;;;;;;;;;8323450;28;20385;-71
2021/07/06 02:27:11;;;;;;;9.77;5.95;;;;;;;;;;8323707;28;20378;-70
2021/07/06 02:31:16;;;;;;;9.50;5.18;;;;;;;;;;8321782;28;20351;-70
2021/07/06 02:35:26;;;;;;;7.38;5.07;;;;;;;;;;8323105;28;20040;-71
2021/07/06 02:39:32;;;;;;;8.40;5.72;;;;;;;;;;8323117;28;20457;-71
2021/07/06 02:43:38;;;;;;;8.95;5.43;;;;;;;;;;8322169;28;20385;-71
2021/07/06 02:47:44;;;;;;;10.68;5.63;;;;;;;;;;8321069;28;20378;-71
2021/07/06 02:51:51;;;;;;;10.38;6.03;;;;;;;;;;8321687;28;20481;-70
2021/07/06 02:55:56;;;;;;;13.00;5.10;;;;;;;;;;8323445;28;20032;-71
2021/07/06 03:00:16;;;;;;;9.05;5.63;;;;;;;;;;8322390;28;20486;-71
2021/07/06 03:04:21;;;;;;;9.93;5.47;;;;;;;;;;8322261;28;20497;-71
2021/07/06 03:08:29;;;;;;;17.10;5.60;;;;;;;;;;8321043;28;20451;-72
2021/07/06 03:12:35;;;;;;;11.43;5.93;;;;;;;;;;8323332;28;20478;-71
2021/07/06 03:16:40;;;;;;;11.15;5.80;;;;;;;;;;8324440;28;20363;-71
2021/07/06 03:20:48;;;;;;;9.93;6.18;;;;;;;;;;8328844;28;20480;-71
2021/07/06 03:24:53;;;;;;;10.40;6.00;;;;;;;;;;8327076;28;20494;-71
2021/07/06 03:28:58;;;;;;;9.20;5.68;;;;;;;;;;8328120;28;20475;-74
2021/07/06 03:33:06;;;;;;;10.60;6.63;;;;;;;;;;8329794;28;20328;-70
2021/07/06 03:37:12;;;;;;;11.45;5.82;;;;;;;;;;8327625;28;20485;-70
2021/07/06 03:41:18;;;;;;;13.48;6.22;;;;;;;;;;8327105;28;20470;-70
2021/07/06 03:45:24;;;;;;;9.75;5.10;;;;;;;;;;8327873;28;20070;-70
2021/07/06 03:49:30;;;;;;;13.52;5.68;;;;;;;;;;8325733;28;20497;-70
2021/07/06 03:53:35;;;;;;;11.50;6.63;;;;;;;;;;8326178;28;20383;-70
2021/07/06 03:57:43;;;;;;;11.98;6.43;;;;;;;;;;8327165;28;20367;-70
2021/07/06 04:01:50;;;;;;;10.82;6.43;;;;;;;;;;8327956;28;20368;-70
2021/07/06 04:05:56;;;;;;;12.10;6.15;;;;;;;;;;8327821;28;20067;-70
2021/07/06 04:10:02;;;;;;;15.18;6.63;;;;;;;;;;8327394;28;20488;-70
2021/07/06 04:14:07;;;;;;;15.82;6.15;;;;;;;;;;8326634;28;20494;-70
2021/07/06 04:18:13;;;;;;;13.25;7.00;;;;;;;;;;8325992;28;20443;-70
2021/07/06 04:22:18;;;;;;;27.15;7.57;;;;;;;;;;8326699;28;20523;-70
2021/07/06 04:26:23;;;;;;;13.10;6.10;;;;;;;;;;8325497;28;20474;-70
2021/07/06 04:30:28;;;;;;;10.18;5.93;;;;;;;;;;8325273;28;20336;-70
2021/07/06 04:34:33;;;;;;;10.38;6.63;;;;;;;;;;8325435;28;20462;-70
2021/07/06 04:38:39;;;;;;;11.23;6.68;;;;;;;;;;8324801;28;20467;-70
2021/07/06 04:42:45;;;;;;;13.00;7.28;;;;;;;;;;8326391;28;20497;-69
2021/07/06 04:46:51;;;;;;;14.53;7.40;;;;;;;;;;8326586;28;20483;-71
2021/07/06 04:51:04;;;;;;;11.38;6.88;;;;;;;;;;8323654;28;20417;-70
2021/07/06 04:55:09;;;;;;;14.30;8.05;;;;;;;;;;8323772;28;20478;-70
2021/07/06 04:59:14;;;;;;;18.23;7.72;;;;;;;;;;8325305;28;20346;-70
2021/07/06 05:03:20;;;;;;;16.85;7.78;;;;;;;;;;8324933;28;20066;-70
2021/07/06 05:07:26;;;;;;;14.32;7.88;;;;;;;;;;8324836;28;20383;-69
2021/07/06 05:11:31;;;;;;;15.55;7.75;;;;;;;;;;8323154;28;20458;-69
2021/07/06 05:15:38;;;;;;;18.95;8.20;;;;;;;;;;8324778;28;20463;-70
2021/07/06 05:19:42;;;;;;;17.40;7.97;;;;;;;;;;8326298;28;20364;-70
2021/07/06 05:23:47;;;;;;;13.93;8.00;;;;;;;;;;8324100;28;20032;-70
2021/07/06 05:27:53;;;;;;;14.70;7.50;;;;;;;;;;8324603;28;20459;-70
2021/07/06 05:31:58;;;;;;;22.13;7.78;;;;;;;;;;8323170;28;20490;-70
2021/07/06 05:36:03;;;;;;;21.80;7.88;;;;;;;;;;8323738;28;20471;-70
2021/07/06 05:40:11;;;;;;;21.92;7.85;;;;;;;;;;8323768;28;20482;-69
2021/07/06 05:44:17;;;;;;;17.88;7.85;;;;;;;;;;8322850;28;20489;-70
2021/07/06 05:48:22;;;;;;;25.25;8.20;;;;;;;;;;8320695;28;20447;-70
2021/07/06 05:52:28;;;;;;;17.98;7.60;;;;;;;;;;8322203;28;20070;-70
2021/07/06 05:56:33;;;;;;;14.27;6.13;;;;;;;;;;8323498;28;20375;-70
2021/07/06 06:00:39;;;;;;;16.05;7.38;;;;;;;;;;8325385;28;20466;-73
2021/07/06 06:04:44;;;;;;;12.75;6.55;;;;;;;;;;8323680;28;20074;-71
2021/07/06 06:08:49;;;;;;;10.70;5.07;;;;;;;;;;8321229;28;20382;-70
2021/07/06 06:12:54;;;;;;;12.02;6.32;;;;;;;;;;8323277;28;20467;-72
2021/07/06 06:16:59;;;;;;;19.10;6.25;;;;;;;;;;8325291;28;20332;-71
2021/07/06 06:21:05;;;;;;;13.25;5.57;;;;;;;;;;8323432;28;20427;-71
2021/07/06 06:25:11;;;;;;;13.02;5.10;;;;;;;;;;8322108;28;20326;-71
2021/07/06 06:29:18;;;;;;;12.05;5.55;;;;;;;;;;8322900;28;20469;-71
2021/07/06 06:33:23;;;;;;;8.90;4.82;;;;;;;;;;8321217;28;20048;-71
2021/07/06 06:37:28;;;;;;;13.02;4.30;;;;;;;;;;8322438;28;20374;-70
2021/07/06 06:41:34;;;;;;;6.88;3.25;;;;;;;;;;8323268;28;20479;-70
2021/07/06 06:45:39;;;;;;;7.70;3.90;;;;;;;;;;8304079;28;20351;-71
2021/07/06 06:49:44;;;;;;;4.75;3.10;;;;;;;;;;8321268;28;20356;-71
2021/07/06 06:53:50;;;;;;;3.72;2.70;;;;;;;;;;8330656;28;20471;-70
2021/07/06 06:57:55;;;;;;;3.22;2.08;;;;;;;;;;8333200;28;20397;-70
2021/07/06 07:02:19;;;;;;;4.57;2.65;;;;;;;;;;8328980;28;20374;-70
2021/07/06 07:06:25;;;;;;;5.43;3.00;;;;;;;;;;8329998;28;20466;-71
2021/07/06 07:10:32;;;;;;;4.22;2.90;;;;;;;;;;8330599;28;20366;-71
2021/07/06 07:14:38;;;;;;;4.55;2.67;;;;;;;;;;8327660;28;20124;-71
2021/07/06 07:18:44;;;;;;;4.85;2.30;;;;;;;;;;8331275;28;20371;-70
2021/07/06 07:22:49;;;;;;;4.40;2.65;;;;;;;;;;8330524;28;20062;-71
2021/07/06 07:26:55;;;;;;;5.38;2.33;;;;;;;;;;8331728;28;20413;-71
2021/07/06 07:31:01;;;;;;;8.52;2.60;;;;;;;;;;8329592;28;20055;-72
2021/07/06 07:35:07;;;;;;;4.35;2.30;;;;;;;;;;8330153;28;20459;-71
2021/07/06 07:39:14;;;;;;;2.92;1.83;;;;;;;;;;8330085;28;20105;-71
2021/07/06 07:43:19;;;;;;;6.18;2.20;;;;;;;;;;8310564;28;20463;-71
2021/07/06 07:47:24;;;;;;;3.60;1.92;;;;;;;;;;8328073;28;20070;-71
2021/07/06 07:51:30;;;;;;;4.45;2.00;;;;;;;;;;8331640;28;20515;-72
2021/07/06 07:55:36;;;;;;;4.82;2.10;;;;;;;;;;8327509;28;20389;-72
2021/07/06 07:59:41;;;;;;;3.88;2.30;;;;;;;;;;8329872;28;20459;-71
2021/07/06 08:03:46;;;;;;;6.57;2.40;;;;;;;;;;8325658;28;20359;-71
2021/07/06 08:07:52;;;;;;;4.13;2.20;;;;;;;;;;8327532;28;20366;-71
2021/07/06 08:11:57;;;;;;;5.88;1.85;;;;;;;;;;8329642;28;20393;-71
2021/07/06 08:16:03;;;;;;;3.42;2.30;;;;;;;;;;8327759;28;20044;-71
2021/07/06 08:20:10;;;;;;;5.05;2.58;;;;;;;;;;8294118;28;20378;-72
2021/07/06 08:24:17;;;;;;;9.57;2.60;;;;;;;;;;8328524;28;20378;-71
2021/07/06 08:28:23;;;;;;;4.03;2.38;;;;;;;;;;8328464;28;20070;-72
2021/07/06 08:32:27;;;;;;;5.10;2.80;;;;;;;;;;8330997;28;20052;-72
2021/07/06 08:36:33;;;;;;;3.90;2.10;;;;;;;;;;8329195;28;20466;-72
2021/07/06 08:40:38;;;;;;;5.53;2.22;;;;;;;;;;8327972;28;20048;-72
2021/07/06 08:44:44;;;;;;;3.70;2.10;;;;;;;;;;8326141;28;20067;-72
2021/07/06 08:48:51;;;;;;;2.58;1.73;;;;;;;;;;8324586;28;20466;-71
2021/07/06 08:52:56;;;;;;;3.15;1.83;;;;;;;;;;8325741;28;20359;-73
2021/07/06 08:57:01;;;;;;;2.38;1.80;;;;;;;;;;8323005;28;20474;-71
2021/07/06 09:01:08;;;;;;;6.13;1.88;;;;;;;;;;8308174;28;20056;-72
2021/07/06 09:05:22;;;;;;;7.65;2.40;;;;;;;;;;8324106;28;20370;-71
2021/07/06 09:09:29;;;;;;;2.47;1.75;;;;;;;;;;8324874;28;20399;-71
2021/07/06 09:13:35;;;;;;;5.53;1.98;;;;;;;;;;8326305;28;20467;-72
2021/07/06 09:17:41;;;;;;;5.67;2.30;;;;;;;;;;8323314;28;20370;-71
2021/07/06 09:21:47;;;;;;;3.90;1.90;;;;;;;;;;8324060;28;20348;-72
2021/07/06 09:26:17;;;;;;;;;;;;;;;;;;8323127;28;20374;-70
2021/07/06 09:30:23;;;;;;;3.78;1.98;;;;;;;;;;8325563;28;19942;-73
2021/07/06 09:34:32;;;;;;;3.42;1.90;;;;;;;;;;8324856;28;20381;-71
2021/07/06 09:38:50;;;;;;;3.15;1.85;;;;;;;;;;8324786;28;20371;-72
2021/07/06 09:43:14;;;;;;;2.63;1.35;;;;;;;;;;8325132;28;20471;-71
2021/07/06 09:47:19;;;;;;;5.68;1.88;;;;;;;;;;8325407;28;20495;-69
2021/07/06 09:51:24;;;;;;;2.67;1.80;;;;;;;;;;8323638;28;20402;-71
2021/07/06 09:55:34;;;;;;;2.08;1.70;;;;;;;;;;8323865;28;20385;-70
2021/07/06 09:59:54;;;;;;;4.05;1.80;;;;;;;;;;8324197;28;20052;-69
2021/07/06 10:04:00;;;;;;;2.40;1.55;;;;;;;;;;8304587;28;20060;-69
2021/07/06 10:08:05;;;;;;;3.85;1.60;;;;;;;;;;8323116;28;20350;-70
2021/07/06 10:12:10;;;;;;;;;;;;;;;;;;8322433;28;20075;-70
2021/07/06 10:16:16;;;;;;;3.58;1.63;;;;;;;;;;8321565;28;20243;-70
2021/07/06 10:20:26;;;;;;;2.92;1.58;;;;;;;;;;8322334;28;20374;-71
2021/07/06 10:24:31;;;;;;;4.00;1.60;;;;;;;;;;8322366;28;20498;-71
2021/07/06 10:28:36;;;;;;;2.77;1.57;;;;;;;;;;8322532;28;20040;-71
2021/07/06 10:32:44;;;;;;;3.78;1.88;;;;;;;;;;8321427;28;20491;-71
2021/07/06 10:36:51;;;;;;;1.55;1.10;;;;;;;;;;8321896;28;20377;-70
2021/07/06 10:41:03;;;;;;;2.38;1.70;;;;;;;;;;8323578;28;20343;-71
2021/07/06 10:45:20;;;;;;;3.33;1.40;;;;;;;;;;8324127;28;20470;-71
2021/07/06 10:49:35;;;;;;;2.20;1.30;;;;;;;;;;8304209;28;20479;-71
2021/07/06 10:54:11;;;;;;;4.00;1.40;;;;;;;;;;8322156;28;20471;-72
2021/07/06 10:58:49;;;;;;;2.15;1.80;;;;;;;;;;8322936;28;20358;-70
2021/07/06 11:03:19;;;;;;;2.42;1.30;;;;;;;;;;8311328;28;20491;-71
2021/07/06 11:07:30;;;;;;;6.22;1.65;;;;;;;;;;8322066;28;20410;-71
2021/07/06 11:11:35;;;;;;;6.25;1.70;;;;;;;;;;8324233;28;20470;-71
2021/07/06 11:15:41;;;;;;;2.95;1.77;;;;;;;;;;8322331;28;20502;-71
2021/07/06 11:19:59;;;;;;;4.20;1.60;;;;;;;;;;8320238;28;20504;-71
2021/07/06 11:24:17;;;;;;;2.00;1.45;;;;;;;;;;8323689;28;20371;-72
2021/07/06 11:28:26;;;;;;;3.90;1.80;;;;;;;;;;8322385;28;20472;-71
2021/07/06 11:32:31;;;;;;;2.60;1.40;;;;;;;;;;8304338;28;20371;-71
2021/07/06 11:36:37;;;;;;;3.28;1.80;;;;;;;;;;8324638;28;20362;-71
2021/07/06 11:40:46;;;;;;;2.72;1.55;;;;;;;;;;8327546;28;20352;-71
2021/07/06 11:44:51;;;;;;;1.77;1.20;;;;;;;;;;8327197;28;20474;-68
2021/07/06 11:49:02;;;;;;;1.88;1.33;;;;;;;;;;8309395;28;20390;-70
2021/07/06 11:53:08;;;;;;;5.88;1.90;;;;;;;;;;8327437;28;20325;-70
2021/07/06 11:57:13;;;;;;;2.38;1.73;;;;;;;;;;8328858;28;20478;-71
2021/07/06 12:01:19;;;;;;;3.92;1.55;;;;;;;;;;8342913;28;20062;-71
2021/07/06 12:05:25;;;;;;;2.33;1.40;;;;;;;;;;8325711;28;20361;-73
2021/07/06 12:09:30;;;;;;;5.22;1.55;;;;;;;;;;8325828;28;20491;-71
2021/07/06 12:13:41;;;;;;;4.47;1.42;;;;;;;;;;8326465;28;20405;-70
2021/07/06 12:17:49;;;;;;;2.75;1.50;;;;;;;;;;8323584;28;20347;-71
2021/07/06 12:21:56;;;;;;;2.78;1.20;;;;;;;;;;8326545;28;20335;-71
2021/07/06 12:26:04;;;;;;;2.30;1.33;;;;;;;;;;8324433;28;20086;-71
2021/07/06 12:30:15;;;;;;;10.32;2.15;;;;;;;;;;8324719;28;20066;-71
2021/07/06 12:34:21;;;;;;;2.67;1.35;;;;;;;;;;8326583;28;20672;-71
2021/07/06 12:38:28;;;;;;;1.52;1.08;;;;;;;;;;8327777;28;20447;-71
2021/07/06 12:42:40;;;;;;;2.72;1.25;;;;;;;;;;8328937;28;20481;-71
2021/07/06 12:46:46;;;;;;;1.15;1.00;;;;;;;;;;8328155;28;20366;-71
2021/07/06 12:50:53;;;;;;;0.68;0.57;;;;;;;;;;8326614;28;20363;-71
2021/07/06 12:55:19;;;;;;;3.50;0.97;;;;;;;;;;8327895;28;20067;-75
2021/07/06 12:59:26;;;;;;;3.33;1.30;;;;;;;;;;8325463;28;20348;-71
2021/07/06 13:03:32;;;;;;;2.05;1.00;;;;;;;;;;8327366;28;20361;-72
2021/07/06 13:07:37;;;;;;;5.90;0.95;;;;;;;;;;8327352;28;20455;-71
2021/07/06 13:11:43;;;;;;;2.00;0.90;;;;;;;;;;8323841;28;20508;-71
2021/07/06 13:15:49;;;;;;;;;;;;;;;;;;8323801;28;20481;-72
2021/07/06 13:20:09;;;;;;;1.40;0.90;;;;;;;;;;8323245;28;20232;-70
2021/07/06 13:24:14;;;;;;;2.58;1.13;;;;;;;;;;8324659;28;20471;-71
2021/07/06 13:28:20;;;;;;;1.63;0.80;;;;;;;;;;8323900;28;20403;-70
2021/07/06 13:32:25;;;;;;;0.90;0.80;;;;;;;;;;8324268;28;20513;-71
2021/07/06 13:36:30;;;;;;;1.25;0.85;;;;;;;;;;8322730;28;20348;-71
2021/07/06 13:40:36;;;;;;;2.17;1.08;;;;;;;;;;8322760;28;20079;-72
2021/07/06 13:44:42;;;;;;;1.27;0.90;;;;;;;;;;8323671;28;20460;-71
2021/07/06 13:48:49;;;;;;;2.78;1.38;;;;;;;;;;8323597;28;20340;-72
2021/07/06 13:52:54;;;;;;;2.00;0.80;;;;;;;;;;8322178;28;20383;-71
2021/07/06 13:57:04;;;;;;;4.47;1.20;;;;;;;;;;8323776;28;20731;-71
2021/07/06 14:01:14;;;;;;;1.58;1.00;;;;;;;;;;8323300;28;20375;-71
2021/07/06 14:05:20;;;;;;;1.65;0.82;;;;;;;;;;8325346;28;20036;-71
2021/07/06 14:09:25;;;;;;;1.42;1.08;;;;;;;;;;8323736;28;20052;-72
2021/07/06 14:13:31;;;;;;;4.73;0.90;;;;;;;;;;8323153;28;20470;-70
2021/07/06 14:17:36;;;;;;;5.65;1.23;;;;;;;;;;8322925;28;20478;-71
2021/07/06 14:21:43;;;;;;;1.97;1.23;;;;;;;;;;8322521;28;20347;-71
2021/07/06 14:25:47;;;;;;;3.88;1.08;;;;;;;;;;8323975;28;20940;-71
2021/07/06 14:29:52;;;;;;;1.63;1.10;;;;;;;;;;8323308;28;20494;-70
2021/07/06 14:33:58;;;;;;;1.90;1.27;;;;;;;;;;8325198;28;20048;-71
2021/07/06 14:38:17;;;;;;;2.67;0.80;;;;;;;;;;8321028;28;20363;-71
2021/07/06 14:42:23;;;;;;;2.38;1.00;;;;;;;;;;8322025;28;20505;-71
2021/07/06 14:46:29;;;;;;;1.50;1.25;;;;;;;;;;8323226;28;20481;-71
2021/07/06 14:50:35;;;;;;;1.20;1.00;;;;;;;;;;8323302;28;20410;-70
2021/07/06 14:54:43;;;;;;;1.98;1.25;;;;;;;;;;8320877;28;20446;-70
2021/07/06 14:58:48;;;;;;;1.50;1.27;;;;;;;;;;8323152;28;20378;-72
2021/07/06 15:02:54;;;;;;;1.70;1.27;;;;;;;;;;8321490;28;20355;-71
2021/07/06 15:06:59;;;;;;;2.60;1.45;;;;;;;;;;8320631;28;20483;-72
2021/07/06 15:11:05;;;;;;;2.05;1.30;;;;;;;;;;8322962;28;20375;-70
2021/07/06 15:15:11;;;;;;;5.70;1.80;;;;;;;;;;8331184;28;20340;-71
2021/07/06 15:19:16;;;;;;;2.05;1.20;;;;;;;;;;8327739;28;20455;-70
2021/07/06 15:23:31;;;;;;;2.97;1.50;;;;;;;;;;8327389;28;20059;-71
2021/07/06 15:27:36;;;;;;;5.25;1.92;;;;;;;;;;8328211;28;20401;-70
2021/07/06 15:31:42;;;;;;;2.90;1.98;;;;;;;;;;8329369;28;20482;-70
2021/07/06 15:35:47;;;;;;;3.95;1.52;;;;;;;;;;8329063;28;20516;-70
2021/07/06 15:39:52;;;;;;;2.15;1.63;;;;;;;;;;8329647;28;20386;-70
2021/07/06 15:43:58;;;;;;;2.05;1.60;;;;;;;;;;8326996;28;20497;-70
2021/07/06 15:48:03;;;;;;;2.35;1.58;;;;;;;;;;8328382;28;20058;-71
2021/07/06 15:52:08;;;;;;;1.63;1.42;;;;;;;;;;8261991;28;20460;-71
2021/07/06 15:56:13;;;;;;;2.47;1.73;;;;;;;;;;8262511;28;20399;-70
2021/07/06 16:00:20;;;;;;;2.08;1.65;;;;;;;;;;8261298;28;20045;-70
2021/07/06 16:04:28;;;;;;;3.45;1.80;;;;;;;;;;8261222;28;20440;-71
2021/07/06 16:08:36;;;;;;;3.15;1.95;;;;;;;;;;8275511;28;20375;-70
2021/07/06 16:12:42;;;;;;;3.67;1.92;;;;;;;;;;8261167;28;20432;-70
2021/07/06 16:16:53;;;;;;;2.20;1.80;;;;;;;;;;8261169;28;20464;-70
2021/07/06 16:20:59;;;;;;;7.18;2.00;;;;;;;;;;8260892;28;20483;-71
2021/07/06 16:25:05;;;;;;;5.60;2.00;;;;;;;;;;8258988;28;20071;-70
2021/07/06 16:29:10;;;;;;;3.95;2.13;;;;;;;;;;8259370;28;20341;-71
2021/07/06 16:33:17;;;;;;;3.92;2.00;;;;;;;;;;8261294;28;20363;-70
2021/07/06 16:37:23;;;;;;;3.65;2.13;;;;;;;;;;8275102;28;20337;-71
2021/07/06 16:41:30;;;;;;;2.78;2.00;;;;;;;;;;8261349;28;20333;-70
2021/07/06 16:45:34;;;;;;;3.38;2.00;;;;;;;;;;8260289;28;20342;-70
2021/07/06 16:49:40;;;;;;;5.22;2.67;;;;;;;;;;8287062;28;20382;-70
2021/07/06 17:59:41;;;;;;;10.43;3.35;;;;;;;;;;8238415;28;20364;-69
2021/07/06 18:03:46;;;;;;;6.95;3.22;;;;;;;;;;8253066;28;20360;-69
2021/07/06 18:07:51;;;;;;;7.10;2.97;;;;;;;;;;8252648;28;20391;-70
2021/07/06 18:11:56;;;;;;;10.98;2.78;;;;;;;;;;8323275;28;20098;-70
2021/07/06 18:16:02;;;;;;;6.30;2.78;;;;;;;;;;8323523;28;20362;-69
2021/07/06 18:20:08;;;;;;;8.93;3.40;;;;;;;;;;8325099;28;20040;-69
2021/07/06 18:24:14;;;;;;;6.82;3.17;;;;;;;;;;8322431;28;20048;-70
2021/07/06 18:28:19;;;;;;;5.35;3.35;;;;;;;;;;8323321;28;20406;-70
2021/07/06 18:32:25;;;;;;;4.85;2.97;;;;;;;;;;8323368;28;20409;-70
2021/07/06 18:36:31;;;;;;;8.55;3.25;;;;;;;;;;8325512;28;20071;-70
2021/07/06 18:40:36;;;;;;;4.93;3.35;;;;;;;;;;8325228;28;20048;-70
2021/07/06 18:44:41;;;;;;;4.75;3.30;;;;;;;;;;8322619;28;20071;-70
2021/07/06 18:48:45;;;;;;;6.35;3.20;;;;;;;;;;8327756;28;20501;-70
2021/07/06 18:52:53;;;;;;;8.82;4.05;;;;;;;;;;8329291;28;20487;-71
2021/07/06 18:57:00;;;;;;;13.75;4.68;;;;;;;;;;8330204;28;20355;-71
2021/07/06 19:01:04;;;;;;;5.50;3.90;;;;;;;;;;8344163;28;20466;-70
2021/07/06 19:05:21;;;;;;;7.05;3.80;;;;;;;;;;8330704;28;20052;-70
2021/07/06 19:09:26;;;;;;;7.75;4.05;;;;;;;;;;8330796;28;20435;-70
2021/07/06 19:13:35;;;;;;;7.53;3.55;;;;;;;;;;8331436;28;20363;-70
2021/07/06 19:17:50;;;;;;;7.57;3.70;;;;;;;;;;8329590;28;20328;-70
2021/07/06 19:21:55;;;;;;;10.23;4.05;;;;;;;;;;8327308;28;20477;-70
2021/07/06 19:34:52;;;;;;;7.47;4.20;;;;;;;;;;8326070;28;20074;-70
2021/07/06 19:38:57;;;;;;;7.57;4.32;;;;;;;;;;8328193;28;20355;-70
2021/07/06 19:43:03;;;;;;;7.50;3.72;;;;;;;;;;8327949;28;20443;-70
2021/07/06 19:47:08;;;;;;;7.65;4.25;;;;;;;;;;8327282;28;20451;-70
2021/07/06 19:51:14;;;;;;;7.43;3.47;;;;;;;;;;8327373;28;20074;-70
2021/07/06 19:55:23;;;;;;;5.38;3.90;;;;;;;;;;8328188;28;20401;-70
2021/07/06 19:59:28;;;;;;;11.20;4.03;;;;;;;;;;8329642;28;20339;-70
2021/07/06 20:03:35;;;;;;;7.38;4.90;;;;;;;;;;8326619;28;20580;-70
2021/07/06 20:07:41;;;;;;;16.95;9.82;;;;;;;;;;8325944;28;20358;-70
2021/07/06 20:11:47;;;;;;;10.65;6.40;;;;;;;;;;8327778;28;20328;-70
2021/07/06 20:15:54;;;;;;;14.30;7.03;;;;;;;;;;8308282;28;20052;-70
2021/07/06 20:19:59;;;;;;;17.65;9.13;;;;;;;;;;8326036;28;20374;-70
2021/07/06 20:24:04;;;;;;;7.25;5.30;;;;;;;;;;8325178;28;20097;-70
2021/07/06 20:28:09;;;;;;;10.02;7.55;;;;;;;;;;8327996;28;20358;-70
2021/07/06 20:32:14;;;;;;;6.43;5.35;;;;;;;;;;8326504;28;20389;-70
2021/07/06 20:36:20;;;;;;;8.63;5.18;;;;;;;;;;8324343;28;20468;-70
2021/07/06 20:40:26;;;;;;;8.63;5.82;;;;;;;;;;8324933;28;20416;-70
2021/07/06 20:44:31;;;;;;;11.15;5.82;;;;;;;;;;8328224;28;20362;-70
2021/07/06 20:48:36;;;;;;;7.22;4.55;;;;;;;;;;8325511;28;20479;-70
2021/07/06 20:52:41;;;;;;;7.25;4.70;;;;;;;;;;8325834;28;20076;-70
2021/07/06 20:56:46;;;;;;;7.93;4.20;;;;;;;;;;8327450;28;20378;-70
2021/07/06 21:00:51;;;;;;;5.60;3.80;;;;;;;;;;8325996;28;20358;-70
2021/07/06 21:04:56;;;;;;;6.88;4.00;;;;;;;;;;8323287;28;20058;-70
2021/07/06 21:09:03;;;;;;;5.68;3.83;;;;;;;;;;8326782;28;20466;-70
2021/07/06 21:13:08;;;;;;;5.32;4.03;;;;;;;;;;8325070;28;20064;-70
2021/07/06 21:17:14;;;;;;;6.20;3.72;;;;;;;;;;8324133;28;20060;-70
2021/07/06 21:21:19;;;;;;;6.93;4.22;;;;;;;;;;8323765;28;20048;-70
2021/07/06 21:25:25;;;;;;;5.30;3.88;;;;;;;;;;8324192;28;20055;-70
2021/07/06 21:29:30;;;;;;;8.10;3.88;;;;;;;;;;8322377;28;20075;-70
2021/07/06 21:33:36;;;;;;;7.20;4.13;;;;;;;;;;8323941;28;20051;-70
2021/07/06 21:37:41;;;;;;;5.07;3.88;;;;;;;;;;8323062;28;20449;-70
2021/07/06 21:41:46;;;;;;;6.07;3.90;;;;;;;;;;8324380;28;20047;-71
2021/07/06 21:45:52;;;;;;;7.97;3.88;;;;;;;;;;8323843;28;20044;-70
2021/07/06 21:49:58;;;;;;;4.30;3.58;;;;;;;;;;8323998;28;20386;-70
2021/07/06 21:54:04;;;;;;;9.32;4.28;;;;;;;;;;8323427;28;20336;-70
2021/07/06 21:58:10;;;;;;;4.82;4.00;;;;;;;;;;8321832;28;20474;-70
2021/07/06 22:02:15;;;;;;;5.97;3.85;;;;;;;;;;8322005;28;20048;-70
2021/07/06 22:06:20;;;;;;;6.82;3.80;;;;;;;;;;8323394;28;20475;-71
2021/07/06 22:10:26;;;;;;;4.82;3.40;;;;;;;;;;8323075;28;20483;-70
2021/07/06 22:14:31;;;;;;;5.60;4.13;;;;;;;;;;8322065;28;20485;-70
2021/07/06 22:18:37;;;;;;;10.00;4.10;;;;;;;;;;8321355;28;20451;-70
2021/07/06 22:22:43;;;;;;;6.20;3.67;;;;;;;;;;8319740;28;20467;-70
2021/07/06 22:26:48;;;;;;;5.85;3.80;;;;;;;;;;8321321;28;20482;-70
2021/07/06 22:30:54;;;;;;;8.88;4.32;;;;;;;;;;8323851;28;20459;-70
2021/07/06 22:35:00;;;;;;;7.60;3.85;;;;;;;;;;8323364;28;20371;-72
2021/07/06 22:39:05;;;;;;;7.88;4.15;;;;;;;;;;8322808;28;20455;-70
2021/07/06 22:43:10;;;;;;;5.95;3.83;;;;;;;;;;8322373;28;20367;-70
2021/07/06 22:47:16;;;;;;;7.53;4.25;;;;;;;;;;8323290;28;20400;-70
2021/07/06 22:51:21;;;;;;;6.45;4.03;;;;;;;;;;8320438;28;20343;-70
2021/07/06 22:55:26;;;;;;;8.88;4.40;;;;;;;;;;8322274;28;20495;-70
2021/07/06 22:59:31;;;;;;;7.70;4.10;;;;;;;;;;8322373;28;20443;-70
2021/07/06 23:03:37;;;;;;;6.20;4.78;;;;;;;;;;8323496;28;20359;-70
2021/07/06 23:07:43;;;;;;;6.03;4.80;;;;;;;;;;8321339;28;20052;-70
2021/07/06 23:11:48;;;;;;;6.25;3.88;;;;;;;;;;8321987;28;20385;-70
2021/07/06 23:15:52;;;;;;;7.55;4.60;;;;;;;;;;8322666;28;20478;-70
2021/07/06 23:19:58;;;;;;;7.20;4.40;;;;;;;;;;8321145;28;20328;-70
2021/07/06 23:24:04;;;;;;;7.57;4.53;;;;;;;;;;8323126;28;20075;-70
2021/07/06 23:28:09;;;;;;;5.97;4.53;;;;;;;;;;8302780;28;20360;-70
2021/07/06 23:32:15;;;;;;;8.63;4.88;;;;;;;;;;8323833;28;20352;-70
2021/07/06 23:36:20;;;;;;;6.78;4.93;;;;;;;;;;8327769;28;20501;-71
2021/07/06 23:40:26;;;;;;;6.95;5.68;;;;;;;;;;8327980;28;20378;-70
2021/07/06 23:44:32;;;;;;;6.35;4.93;;;;;;;;;;8328080;28;20375;-70
2021/07/06 23:48:37;;;;;;;6.38;4.63;;;;;;;;;;8325610;28;20462;-70
2021/07/06 23:52:42;;;;;;;8.57;5.53;;;;;;;;;;8326655;28;20475;-70
2021/07/06 23:56:48;;;;;;;6.10;4.60;;;;;;;;;;8327759;28;20063;-70
